Time;durP1;ratioP1;P1;durP2;ratioP2;P2;SDS_P1;SDS_P2;PMS_P1;PMS_P2;Temp;Humidity;BMP_temperature;BMP_pressure;BME280_temperature;BME280_humidity;BME280_pressure;Samples;Min_cycle;Max_cycle;Signal;HPM_P1;HPM_P2
2022/10/05 00:07:17;;;;;;;0.93;0.70;;;20.50;53.60;;;;;;20642515;28;20031;-74
2022/10/05 00:17:25;;;;;;;0.88;0.77;;;20.50;53.70;;;;;;20658444;28;20111;-75
2022/10/05 00:27:31;;;;;;;1.63;0.70;;;20.50;53.70;;;;;;20709823;28;20042;-74
2022/10/05 00:37:32;;;;;;;2.03;0.80;;;20.50;53.80;;;;;;20722316;28;20706;-74
2022/10/05 00:47:46;;;;;;;0.63;0.63;;;20.50;53.80;;;;;;20657006;28;20177;-73
2022/10/05 00:58:22;;;;;;;1.45;0.73;;;20.50;53.90;;;;;;20694009;28;20403;-74
2022/10/05 01:08:30;;;;;;;1.37;0.80;;;20.40;53.90;;;;;;20637352;28;20374;-74
2022/10/05 01:18:45;;;;;;;0.77;0.50;;;20.40;53.90;;;;;;20651398;28;20038;-74
2022/10/05 01:28:49;;;;;;;0.97;0.83;;;20.40;53.90;;;;;;20637541;28;20508;-74
2022/10/05 01:39:14;;;;;;;1.90;0.95;;;20.40;54.00;;;;;;20667150;28;20045;-74
2022/10/05 01:49:42;;;;;;;1.23;0.43;;;20.30;53.90;;;;;;20969557;23;20109;-74
2022/10/05 01:59:59;;;;;;;0.90;0.60;;;20.30;54.00;;;;;;20569826;28;20133;-74
2022/10/05 02:10:04;;;;;;;1.48;0.60;;;20.30;54.00;;;;;;20571950;28;20062;-73
2022/10/05 02:20:08;;;;;;;1.90;0.75;;;20.30;54.00;;;;;;20568783;28;20086;-74
2022/10/05 02:30:09;;;;;;;1.65;0.73;;;20.30;54.10;;;;;;20569010;28;20066;-73
2022/10/05 02:40:28;;;;;;;1.27;0.80;;;20.30;54.10;;;;;;20552871;28;20513;-74
2022/10/05 02:50:47;;;;;;;1.92;0.80;;;20.30;54.10;;;;;;20537907;28;20043;-74
2022/10/05 03:00:59;;;;;;;1.33;0.57;;;20.30;54.20;;;;;;20585199;28;20496;-73
2022/10/05 03:11:09;;;;;;;1.15;0.68;;;20.20;54.20;;;;;;20549539;28;20031;-74
2022/10/05 03:21:35;;;;;;;1.55;0.70;;;20.20;54.20;;;;;;20565431;28;20035;-74
2022/10/05 03:31:52;;;;;;;1.67;0.95;;;20.20;54.50;;;;;;20546851;28;20038;-75
2022/10/05 03:41:53;;;;;;;;;;;20.20;54.30;;;;;;20531675;28;20031;-75
2022/10/05 03:52:03;;;;;;;0.80;0.55;;;20.20;54.30;;;;;;20561978;28;19965;-74
2022/10/05 04:02:08;;;;;;;1.27;0.93;;;20.20;54.40;;;;;;20475874;28;20098;-74
2022/10/05 04:12:22;;;;;;;1.50;0.80;;;20.20;54.50;;;;;;20532428;28;20038;-73
2022/10/05 04:22:34;;;;;;;0.80;0.70;;;20.80;53.20;;;;;;20546945;28;20042;-74
2022/10/05 04:32:36;;;;;;;2.20;0.75;;;21.10;52.30;;;;;;20560106;28;20035;-77
2022/10/05 04:43:00;;;;;;;1.00;0.80;;;21.40;51.70;;;;;;20533262;28;20397;-73
2022/10/05 04:53:09;;;;;;;1.17;0.80;;;21.60;51.10;;;;;;20582607;28;20437;-73
2022/10/05 05:03:48;;;;;;;0.80;0.52;;;21.70;50.80;;;;;;20578110;28;20035;-78
2022/10/05 05:14:03;;;;;;;0.98;0.77;;;21.80;50.60;;;;;;20565482;28;20049;-77
2022/10/05 05:24:07;;;;;;;2.63;0.80;;;21.80;50.60;;;;;;20597398;28;20541;-76
2022/10/05 05:34:31;;;;;;;1.08;0.63;;;21.70;50.50;;;;;;20578613;28;20039;-74
2022/10/05 05:44:35;;;;;;;0.82;0.50;;;21.70;50.60;;;;;;20578533;28;20035;-75
2022/10/05 05:54:41;;;;;;;1.20;0.90;;;21.60;50.70;;;;;;20564712;28;20393;-74
2022/10/05 06:04:51;;;;;;;1.00;0.70;;;21.60;50.80;;;;;;20563248;28;20077;-76
2022/10/05 06:15:18;;;;;;;0.93;0.80;;;21.60;50.90;;;;;;20546406;28;20031;-77
2022/10/05 06:25:29;;;;;;;1.75;0.82;;;21.50;51.00;;;;;;20571203;28;20069;-74
2022/10/05 06:36:06;;;;;;;2.38;1.20;;;21.40;51.00;;;;;;20575830;28;20042;-74
2022/10/05 06:46:15;;;;;;;1.30;0.93;;;21.40;51.20;;;;;;20592684;28;20138;-75
2022/10/05 06:56:55;;;;;;;1.27;0.82;;;21.40;51.90;;;;;;20578000;28;20031;-76
2022/10/05 07:07:01;;;;;;;1.85;0.70;;;21.40;51.30;;;;;;20560665;28;20060;-76
2022/10/05 07:17:07;;;;;;;1.25;0.75;;;21.40;51.30;;;;;;20558252;28;20037;-76
2022/10/05 07:27:20;;;;;;;1.07;0.80;;;21.30;51.40;;;;;;20572658;28;20074;-75
2022/10/05 07:37:56;;;;;;;2.25;0.90;;;21.30;51.50;;;;;;20541208;28;20038;-76
2022/10/05 07:48:34;;;;;;;0.95;0.77;;;21.30;51.50;;;;;;20488156;28;20138;-75
2022/10/05 07:58:53;;;;;;;1.38;0.75;;;21.30;51.60;;;;;;20555568;28;20045;-75
2022/10/05 08:08:57;;;;;;;2.03;1.02;;;21.20;51.60;;;;;;20553788;28;20030;-70
2022/10/05 08:19:43;;;;;;;2.05;0.90;;;21.30;51.70;;;;;;20528649;28;20043;-72
2022/10/05 08:29:50;;;;;;;1.45;0.88;;;21.30;51.70;;;;;;20567562;28;20051;-73
2022/10/05 08:40:00;;;;;;;1.58;0.80;;;21.30;51.60;;;;;;20573853;28;20062;-72
2022/10/05 08:50:19;;;;;;;2.00;0.80;;;21.30;51.50;;;;;;20601960;28;20045;-73
2022/10/05 09:00:24;;;;;;;1.13;0.93;;;21.40;51.50;;;;;;20612211;28;20045;-76
2022/10/05 09:10:57;;;;;;;4.18;1.65;;;21.50;51.40;;;;;;20545571;28;20441;-78
2022/10/05 09:21:32;;;;;;;1.85;1.00;;;21.60;51.40;;;;;;20594080;28;20524;-79
2022/10/05 09:32:03;;;;;;;4.67;1.20;;;21.60;51.20;;;;;;20592554;28;20051;-79
2022/10/05 09:42:16;;;;;;;2.70;1.25;;;21.70;51.10;;;;;;20599059;28;20030;-77
2022/10/05 09:52:30;;;;;;;1.52;0.98;;;21.80;50.90;;;;;;20647317;28;20038;-77
2022/10/05 10:03:13;;;;;;;1.90;0.98;;;21.90;51.00;;;;;;20559027;28;20042;-76
2022/10/05 10:13:56;;;;;;;1.02;0.90;;;22.00;50.40;;;;;;20598814;28;20042;-74
2022/10/05 10:24:29;;;;;;;2.60;0.90;;;22.10;50.30;;;;;;20573832;28;20030;-73
2022/10/05 10:34:44;;;;;;;2.28;1.10;;;22.10;50.10;;;;;;20578635;28;20116;-76
2022/10/05 10:45:07;;;;;;;1.30;1.10;;;22.10;50.30;;;;;;20573611;28;20089;-75
2022/10/05 10:55:23;;;;;;;1.48;1.10;;;22.20;50.10;;;;;;20599793;28;20122;-75
2022/10/05 11:05:32;;;;;;;3.00;1.17;;;22.20;50.00;;;;;;20553957;28;20027;-77
2022/10/05 11:16:06;;;;;;;2.22;1.20;;;22.20;50.00;;;;;;20555039;28;20123;-77
2022/10/05 11:27:17;;;;;;;1.27;0.85;;;22.30;50.00;;;;;;20555425;28;20051;-76
2022/10/05 11:37:47;;;;;;;1.42;0.95;;;22.20;50.00;;;;;;20517945;28;20046;-78
2022/10/05 11:47:58;;;;;;;1.23;0.90;;;22.20;50.10;;;;;;20551139;28;20460;-78
2022/10/05 11:58:19;;;;;;;1.67;0.88;;;22.10;50.10;;;;;;20565557;28;20046;-81
2022/10/05 12:08:36;;;;;;;1.67;1.20;;;22.10;50.20;;;;;;20569960;28;20393;-79
2022/10/05 12:19:13;;;;;;;1.42;0.82;;;22.10;50.30;;;;;;20545163;28;20035;-78
2022/10/05 12:29:18;;;;;;;1.13;0.88;;;22.10;50.30;;;;;;20503739;28;20046;-77
2022/10/05 12:39:37;;;;;;;1.37;1.10;;;22.10;50.40;;;;;;20501508;29;20035;-78
2022/10/05 12:49:47;;;;;;;1.30;0.90;;;22.00;50.40;;;;;;20546624;28;20106;-78
2022/10/05 13:00:18;;;;;;;1.48;1.10;;;22.00;50.40;;;;;;20578241;28;20082;-79
2022/10/05 13:10:55;;;;;;;1.35;0.93;;;22.10;50.40;;;;;;20543700;28;20042;-76
2022/10/05 13:21:05;;;;;;;1.35;0.95;;;22.10;50.40;;;;;;20578675;28;20043;-78
2022/10/05 13:31:12;;;;;;;1.77;1.13;;;22.00;50.40;;;;;;20559881;28;20106;-78
2022/10/05 13:41:27;;;;;;;1.42;0.90;;;22.10;50.50;;;;;;20569428;28;20034;-78
2022/10/05 13:51:34;;;;;;;;;;;22.20;50.40;;;;;;20590191;28;20043;-78
2022/10/05 14:01:54;;;;;;;1.27;1.00;;;22.20;50.30;;;;;;20590375;28;20380;-76
2022/10/05 14:12:03;;;;;;;1.30;0.98;;;22.30;50.20;;;;;;20542655;28;20089;-75
2022/10/05 14:22:17;;;;;;;1.95;1.10;;;22.30;50.00;;;;;;20596546;28;20035;-75
2022/10/05 14:32:21;;;;;;;1.23;0.82;;;22.40;49.90;;;;;;20571519;28;20070;-74
2022/10/05 14:42:23;;;;;;;2.43;1.10;;;22.50;49.80;;;;;;20565215;28;20038;-78
2022/10/05 14:52:31;;;;;;;1.08;0.98;;;22.50;49.70;;;;;;20568332;28;20118;-75
2022/10/05 15:02:51;;;;;;;1.48;1.00;;;22.60;49.70;;;;;;20574171;28;20042;-77
2022/10/05 15:13:12;;;;;;;1.63;1.10;;;22.70;49.60;;;;;;20585847;28;20098;-75
2022/10/05 15:23:31;;;;;;;1.25;0.98;;;22.70;49.60;;;;;;20570149;28;20031;-75
2022/10/05 15:33:45;;;;;;;1.33;0.90;;;22.60;49.70;;;;;;20575760;28;20039;-71
2022/10/05 15:43:49;;;;;;;1.50;1.20;;;22.70;49.80;;;;;;20565888;28;20106;-73
2022/10/05 16:05:03;;;;;;;1.48;0.80;;;22.70;49.60;;;;;;20532024;28;20031;-74
2022/10/05 16:15:15;;;;;;;1.10;0.60;;;22.70;49.70;;;;;;20555184;28;20039;-78
2022/10/05 16:25:32;;;;;;;1.27;0.80;;;22.60;49.90;;;;;;20582123;28;20481;-74
2022/10/05 16:35:52;;;;;;;3.05;0.95;;;22.50;49.90;;;;;;20567986;28;20085;-75
2022/10/05 16:46:05;;;;;;;0.95;0.70;;;22.50;50.20;;;;;;20548649;28;20031;-76
2022/10/05 16:56:10;;;;;;;0.85;0.70;;;22.40;50.30;;;;;;20571361;28;20691;-76
2022/10/05 17:06:34;;;;;;;1.08;0.95;;;22.30;50.40;;;;;;20566670;28;20026;-77
2022/10/05 17:17:14;;;;;;;1.40;0.88;;;22.30;50.50;;;;;;20551535;28;20043;-75
2022/10/05 17:27:49;;;;;;;1.02;0.60;;;22.20;50.70;;;;;;20563620;28;20401;-77
2022/10/05 17:38:20;;;;;;;1.00;0.80;;;22.20;50.90;;;;;;20578897;28;20039;-78
2022/10/05 17:48:58;;;;;;;1.95;1.00;;;22.20;50.90;;;;;;20591670;28;20043;-80
2022/10/05 17:59:05;;;;;;;1.15;0.73;;;22.20;51.00;;;;;;20561957;28;20035;-81
2022/10/05 18:09:27;;;;;;;2.10;1.00;;;22.10;51.00;;;;;;20591354;28;20046;-79
2022/10/05 18:19:31;;;;;;;0.77;0.65;;;22.00;51.10;;;;;;20581151;28;20039;-81
2022/10/05 18:30:01;;;;;;;1.80;0.88;;;22.10;51.20;;;;;;20552196;28;20042;-79
2022/10/05 18:40:20;;;;;;;1.17;0.80;;;22.00;51.20;;;;;;20589526;28;20050;-79
2022/10/05 18:50:44;;;;;;;1.00;0.80;;;22.00;51.30;;;;;;20552827;28;20491;-79
2022/10/05 19:01:03;;;;;;;0.98;0.82;;;22.00;51.40;;;;;;20566920;28;20042;-80
2022/10/05 19:11:31;;;;;;;1.08;0.77;;;21.90;51.40;;;;;;20565039;28;20039;-80
2022/10/05 19:21:52;;;;;;;0.80;0.60;;;21.90;51.50;;;;;;20530779;28;20063;-79
2022/10/05 19:32:00;;;;;;;0.88;0.70;;;21.90;51.60;;;;;;20553075;28;20066;-79
2022/10/05 19:42:19;;;;;;;1.77;1.10;;;21.90;51.60;;;;;;20533446;28;20093;-80
2022/10/05 19:52:27;;;;;;;2.10;1.02;;;21.90;51.70;;;;;;20556282;28;20035;-81
2022/10/05 20:02:31;;;;;;;1.67;1.00;;;21.80;51.70;;;;;;20524954;28;20069;-79
2022/10/05 20:12:54;;;;;;;1.52;0.88;;;21.90;51.80;;;;;;20501627;28;20407;-80
2022/10/05 20:23:19;;;;;;;1.45;1.15;;;21.80;51.90;;;;;;20529205;28;20534;-81
2022/10/05 20:33:26;;;;;;;1.02;0.80;;;21.80;52.00;;;;;;20548564;28;20097;-83
2022/10/05 20:43:28;;;;;;;1.60;1.17;;;21.80;52.10;;;;;;20515044;28;20034;-81
2022/10/05 20:53:29;;;;;;;1.60;0.77;;;21.80;52.20;;;;;;20552409;28;20053;-81
2022/10/05 21:03:30;;;;;;;1.00;0.90;;;21.70;52.20;;;;;;20562736;28;20374;-80
2022/10/05 21:13:31;;;;;;;1.50;1.08;;;21.70;52.30;;;;;;20593802;28;20047;-81
2022/10/05 21:23:32;;;;;;;1.50;0.93;;;21.70;52.40;;;;;;20540960;28;20034;-79
2022/10/05 21:33:33;;;;;;;2.70;1.00;;;21.70;52.40;;;;;;20598774;28;20663;-80
2022/10/05 21:43:34;;;;;;;1.20;0.90;;;21.60;52.50;;;;;;20575330;28;20136;-81
2022/10/05 21:53:40;;;;;;;2.17;1.08;;;21.60;52.60;;;;;;20557959;28;20053;-80
2022/10/05 22:03:40;;;;;;;1.27;0.82;;;21.60;52.70;;;;;;20589644;28;20035;-81
2022/10/05 22:13:43;;;;;;;1.05;0.88;;;21.60;52.70;;;;;;20573819;28;20112;-81
2022/10/05 22:23:46;;;;;;;1.42;0.90;;;21.60;52.70;;;;;;20572429;28;20038;-80
2022/10/05 22:33:48;;;;;;;1.42;0.90;;;21.60;52.80;;;;;;20603587;28;20050;-79
2022/10/05 22:43:50;;;;;;;1.20;1.00;;;21.60;52.90;;;;;;20570414;28;20039;-80
2022/10/05 22:53:54;;;;;;;0.82;0.65;;;21.60;53.00;;;;;;20576416;28;20034;-80
2022/10/05 23:03:56;;;;;;;1.05;0.90;;;21.60;53.00;;;;;;20585566;28;20053;-80
2022/10/05 23:13:59;;;;;;;1.40;1.00;;;21.50;53.10;;;;;;20568471;28;20142;-80
2022/10/05 23:24:10;;;;;;;2.38;0.77;;;21.50;53.20;;;;;;20569124;28;20038;-81
2022/10/05 23:34:11;;;;;;;2.15;0.95;;;21.50;53.30;;;;;;20550894;28;20035;-81
2022/10/05 23:44:11;;;;;;;0.83;0.77;;;21.50;53.30;;;;;;20565924;28;20038;-80
2022/10/05 23:54:12;;;;;;;2.37;0.90;;;21.50;53.30;;;;;;20549305;28;20065;-81
